createdAt,value
2019-04-06T00:00:55.075Z,97.30
2019-04-06T00:11:00.653Z,96.50
2019-04-06T00:21:06.187Z,97.10
2019-04-06T00:31:25.412Z,96.50
2019-04-06T00:41:31.021Z,96.80
2019-04-06T00:51:36.533Z,96.90
2019-04-06T01:01:42.079Z,96.80
2019-04-06T01:11:47.600Z,96.80
2019-04-06T01:21:54.480Z,96.90
2019-04-06T01:32:00.101Z,96.10
2019-04-06T01:42:05.687Z,96.10
2019-04-06T01:52:11.315Z,95.80
2019-04-06T02:02:18.641Z,95.70
2019-04-06T02:12:24.175Z,95.30
2019-04-06T02:22:29.812Z,95.40
2019-04-06T02:32:36.905Z,95.10
2019-04-06T02:42:50.337Z,95.20
2019-04-06T02:52:55.841Z,95.10
2019-04-06T03:03:01.518Z,95.30
2019-04-06T03:13:08.259Z,95.50
2019-04-06T03:23:14.026Z,95.60
2019-04-06T03:33:21.255Z,95.40
2019-04-06T03:43:26.772Z,96.90
2019-04-06T03:53:32.274Z,96.70
2019-04-06T04:03:37.938Z,96.60
2019-04-06T04:13:43.475Z,96.70
2019-04-06T04:23:49.075Z,96.70
2019-04-06T04:33:54.705Z,96.60
2019-04-06T04:44:00.283Z,97.10
2019-04-06T04:54:05.880Z,96.80
2019-04-06T05:04:11.584Z,96.80
2019-04-06T05:14:53.557Z,98.70
2019-04-06T05:24:59.237Z,99.90
2019-04-06T05:35:06.650Z,99.90
2019-04-06T05:45:12.429Z,99.90
2019-04-06T05:55:18.003Z,99.90
2019-04-06T06:05:23.563Z,99.80
2019-04-06T06:15:29.115Z,99.90
2019-04-06T06:25:35.170Z,99.90
2019-04-06T06:35:40.760Z,99.90
2019-04-06T06:45:46.968Z,99.90
2019-04-06T06:55:53.455Z,99.90
2019-04-06T07:05:59.534Z,99.10
2019-04-06T07:16:05.030Z,98.40
2019-04-06T07:26:10.676Z,98.20
2019-04-06T07:36:16.181Z,99.20
2019-04-06T07:46:24.355Z,99.10
2019-04-06T07:56:31.332Z,99.50
2019-04-06T08:06:38.453Z,99.90
2019-04-06T08:16:43.963Z,99.90
2019-04-06T08:26:49.713Z,99.90
2019-04-06T08:36:55.300Z,99.90
2019-04-06T08:47:00.835Z,96.80
2019-04-06T08:57:06.318Z,96.60
2019-04-06T09:07:11.836Z,97.30
2019-04-06T09:17:17.311Z,98.00
2019-04-06T09:27:22.841Z,97.70
2019-04-06T09:37:28.482Z,98.30
2019-04-06T09:47:35.725Z,97.60
2019-04-06T10:07:52.096Z,99.90
2019-04-06T10:18:05.379Z,99.90
2019-04-06T10:28:24.621Z,99.90
2019-04-06T10:38:36.126Z,99.90
2019-04-06T10:48:49.036Z,99.90
2019-04-06T10:59:05.306Z,99.90
2019-04-06T11:09:18.538Z,99.90
2019-04-06T11:19:41.707Z,99.90
2019-04-06T11:29:51.848Z,99.90
2019-04-06T11:40:11.635Z,99.90
2019-04-06T11:50:22.201Z,99.90
2019-04-06T12:00:45.949Z,99.90
2019-04-06T12:10:55.878Z,99.90
2019-04-06T12:21:05.701Z,99.90
2019-04-06T12:31:13.002Z,99.90
2019-04-06T12:41:23.119Z,99.90
2019-04-06T12:51:45.604Z,99.90
2019-04-06T13:02:04.976Z,99.90
2019-04-06T13:12:16.565Z,99.90
2019-04-06T13:22:40.208Z,99.90
2019-04-06T13:33:03.652Z,99.90
2019-04-06T13:43:21.796Z,99.90
2019-04-06T13:53:52.829Z,99.90
2019-04-06T14:04:08.286Z,99.90
2019-04-06T14:14:15.334Z,99.90
2019-04-06T14:24:39.048Z,99.90
2019-04-06T14:35:01.287Z,99.90
2019-04-06T14:45:14.835Z,99.90
2019-04-06T14:55:31.409Z,99.90
2019-04-06T15:05:48.494Z,99.90
2019-04-06T15:15:55.804Z,99.90
2019-04-06T15:26:21.034Z,99.90
2019-04-06T15:36:46.406Z,99.90
2019-04-06T15:47:08.880Z,99.90
2019-04-06T15:57:16.026Z,99.90
2019-04-06T16:07:39.634Z,99.90
2019-04-06T16:17:49.762Z,99.90
2019-04-06T16:28:01.965Z,99.90
2019-04-06T16:38:15.484Z,99.90
2019-04-06T16:48:22.966Z,99.90
2019-04-06T16:58:30.502Z,99.90
2019-04-06T17:08:41.274Z,99.90
2019-04-06T17:19:04.020Z,99.90
2019-04-06T17:29:27.896Z,99.90
2019-04-06T17:39:41.346Z,99.90
2019-04-06T18:00:32.967Z,99.90
2019-04-06T18:10:59.276Z,99.90
2019-04-06T18:21:05.364Z,99.90
2019-04-06T18:31:25.155Z,99.90
2019-04-06T18:41:31.191Z,99.90
2019-04-06T18:51:37.319Z,99.90
2019-04-06T19:01:44.887Z,99.90
2019-04-06T19:11:55.081Z,99.90
2019-04-06T19:21:59.023Z,99.90
2019-04-06T19:32:05.631Z,99.90
2019-04-06T19:42:11.810Z,99.90
2019-04-06T19:52:17.859Z,99.90
2019-04-06T20:02:24.767Z,99.90
2019-04-06T20:12:31.079Z,99.90
2019-04-06T20:22:37.623Z,99.90
2019-04-06T20:32:45.839Z,99.90
2019-04-06T20:42:51.879Z,99.90
2019-04-06T20:52:58.012Z,99.90
2019-04-06T21:03:05.077Z,99.90
2019-04-06T21:13:11.231Z,99.90
2019-04-06T21:23:17.227Z,99.90
2019-04-06T21:33:37.646Z,99.90
2019-04-06T21:43:54.661Z,99.90
2019-04-06T21:54:01.276Z,99.90
2019-04-06T22:04:08.077Z,99.90
2019-04-06T22:14:15.164Z,99.90
2019-04-06T22:24:21.285Z,99.90
2019-04-06T22:34:36.439Z,99.90
2019-04-06T22:44:34.761Z,99.90
2019-04-06T22:54:40.356Z,99.90
2019-04-06T23:04:50.910Z,99.90
2019-04-06T23:14:56.461Z,99.90
2019-04-06T23:25:02.722Z,99.90
2019-04-06T23:35:12.178Z,99.90
2019-04-06T23:45:17.676Z,99.90
2019-04-06T23:55:23.258Z,99.90
